Time;durP1;ratioP1;P1;durP2;ratioP2;P2;SDS_P1;SDS_P2;PMS_P1;PMS_P2;Temp;Humidity;BMP_temperature;BMP_pressure;BME280_temperature;BME280_humidity;BME280_pressure;Samples;Min_cycle;Max_cycle;Signal;HPM_P1;HPM_P2
2023/01/06 00:00:25;;;;;;;12.88;7.35;;;;;;;9.24;100.00;101662.44;5246348;28;20120;-70
2023/01/06 00:02:57;;;;;;;14.23;7.68;;;;;;;9.15;100.00;101663.84;5244464;28;20816;-71
2023/01/06 00:05:28;;;;;;;13.50;7.05;;;;;;;9.18;100.00;101653.00;5240232;28;20039;-71
2023/01/06 00:08:00;;;;;;;12.98;7.35;;;;;;;9.15;100.00;101650.53;5239456;28;20491;-71
2023/01/06 00:10:31;;;;;;;14.27;7.10;;;;;;;9.19;100.00;101651.22;5248376;28;20039;-71
2023/01/06 00:13:02;;;;;;;14.80;7.50;;;;;;;9.16;100.00;101649.56;5248827;28;20460;-71
2023/01/06 00:15:36;;;;;;;11.98;6.13;;;;;;;9.15;100.00;101650.53;5243163;28;22116;-71
2023/01/06 00:18:07;;;;;;;13.07;6.10;;;;;;;9.19;100.00;101637.91;5239518;28;20025;-70
2023/01/06 00:20:39;;;;;;;8.85;5.28;;;;;;;9.16;100.00;101641.59;5240913;28;20158;-71
2023/01/06 00:23:10;;;;;;;11.55;5.22;;;;;;;9.16;100.00;101638.91;5240408;28;20040;-71
2023/01/06 00:25:48;;;;;;;9.63;5.30;;;;;;;9.16;100.00;101627.41;5240760;28;20039;-70
2023/01/06 00:28:20;;;;;;;9.57;5.20;;;;;;;9.17;100.00;101637.13;5240975;28;20038;-71
2023/01/06 00:30:51;;;;;;;11.43;4.53;;;;;;;9.24;100.00;101635.81;5237987;28;20421;-71
2023/01/06 00:33:23;;;;;;;8.18;4.65;;;;;;;9.20;100.00;101631.63;5240980;28;20042;-71
2023/01/06 00:35:58;;;;;;;10.05;4.25;;;;;;;9.19;100.00;101638.75;5240605;28;20040;-71
2023/01/06 00:38:30;;;;;;;9.88;4.38;;;;;;;9.18;100.00;101631.69;5238659;28;20033;-71
2023/01/06 00:42:02;;;;;;;9.30;4.53;;;;;;;9.18;100.00;101637.03;5238146;28;20029;-71
2023/01/06 00:43:58;;;;;;;7.57;4.00;;;;;;;9.20;100.00;101626.28;5240018;28;20037;-71
2023/01/06 00:46:30;;;;;;;8.45;4.55;;;;;;;9.17;100.00;101632.66;5240684;28;20037;-71
2023/01/06 00:49:03;;;;;;;9.25;4.32;;;;;;;9.19;100.00;101630.78;5239115;28;20040;-71
2023/01/06 00:51:36;;;;;;;9.95;4.07;;;;;;;9.19;100.00;101635.25;5239997;28;20032;-71
2023/01/06 00:54:10;;;;;;;12.27;4.67;;;;;;;9.24;100.00;101630.47;5241854;28;20021;-71
2023/01/06 00:56:43;;;;;;;8.80;4.18;;;;;;;9.20;100.00;101626.28;5240118;28;20086;-72
2023/01/06 00:59:17;;;;;;;8.65;3.92;;;;;;;9.19;100.00;101636.09;5237247;28;20049;-71
2023/01/06 01:01:50;;;;;;;;;;;;;;;9.26;100.00;101630.41;5245754;28;20094;-71
2023/01/06 01:04:22;;;;;;;9.05;4.07;;;;;;;9.24;100.00;101627.81;5243737;28;19947;-71
2023/01/06 01:06:54;;;;;;;8.18;3.80;;;;;;;9.20;100.00;101629.84;5245395;28;20054;-71
2023/01/06 01:09:30;;;;;;;7.50;4.03;;;;;;;9.28;100.00;101624.06;5244275;28;20029;-72
2023/01/06 01:12:11;;;;;;;7.95;4.05;;;;;;;9.24;100.00;101622.50;5247506;28;20036;-71
2023/01/06 01:14:46;;;;;;;8.80;3.85;;;;;;;9.25;100.00;101620.72;5247242;28;20029;-71
2023/01/06 01:17:24;;;;;;;8.10;4.10;;;;;;;9.18;100.00;101623.72;5245275;28;20115;-71
2023/01/06 01:19:58;;;;;;;8.00;3.17;;;;;;;9.28;100.00;101618.72;5242130;28;20495;-71
2023/01/06 01:22:29;;;;;;;10.70;3.53;;;;;;;9.22;100.00;101616.41;5243036;28;20506;-71
2023/01/06 01:25:01;;;;;;;9.02;3.08;;;;;;;9.21;100.00;101615.56;5243681;28;20037;-71
2023/01/06 01:27:32;;;;;;;8.23;3.10;;;;;;;9.26;100.00;101623.25;5243746;28;20530;-71
2023/01/06 01:30:04;;;;;;;8.10;3.10;;;;;;;9.26;100.00;101619.75;5243284;28;20091;-71
2023/01/06 01:32:35;;;;;;;5.50;2.95;;;;;;;9.32;100.00;101622.03;5251723;28;20059;-71
2023/01/06 01:35:07;;;;;;;6.63;2.92;;;;;;;9.25;100.00;101608.25;5250281;28;20592;-71
2023/01/06 01:37:38;;;;;;;7.65;3.45;;;;;;;9.23;100.00;101608.34;5249159;28;20546;-71
2023/01/06 01:40:10;;;;;;;6.82;2.88;;;;;;;9.30;100.00;101605.31;5244372;28;20025;-71
2023/01/06 01:42:41;;;;;;;7.53;2.80;;;;;;;9.30;100.00;101599.97;5244375;28;20045;-71
2023/01/06 01:45:19;;;;;;;8.98;2.70;;;;;;;9.22;100.00;101593.31;5241538;28;20148;-71
2023/01/06 01:47:59;;;;;;;5.80;2.35;;;;;;;9.29;100.00;101587.63;5247321;28;20075;-71
2023/01/06 01:50:38;;;;;;;5.55;1.90;;;;;;;9.21;100.00;101588.94;5243126;28;20111;-71
2023/01/06 01:53:26;;;;;;;8.32;2.00;;;;;;;9.23;100.00;101587.03;5244606;28;20628;-71
2023/01/06 01:56:03;;;;;;;6.63;2.10;;;;;;;9.22;100.00;101584.44;5241970;28;20043;-71
2023/01/06 01:58:43;;;;;;;6.63;1.95;;;;;;;9.19;100.00;101569.53;5243021;28;20050;-71
2023/01/06 02:01:15;;;;;;;7.03;1.92;;;;;;;9.22;100.00;101571.13;5245205;28;20051;-71
2023/01/06 02:03:46;;;;;;;8.32;1.90;;;;;;;9.18;100.00;101572.28;5242955;28;20025;-71
2023/01/06 02:06:21;;;;;;;13.93;2.85;;;;;;;9.19;100.00;101568.69;5242545;28;20029;-71
2023/01/06 02:09:05;;;;;;;5.82;1.67;;;;;;;9.18;100.00;101574.94;5248591;28;20106;-71
2023/01/06 02:11:37;;;;;;;5.47;1.80;;;;;;;9.22;100.00;101571.13;5246863;28;20033;-70
2023/01/06 02:14:15;;;;;;;5.70;1.70;;;;;;;9.17;100.00;101574.09;5250937;28;20269;-70
2023/01/06 02:16:57;;;;;;;7.50;1.70;;;;;;;9.17;100.00;101574.09;5245988;28;20024;-70
2023/01/06 02:20:04;;;;;;;6.43;1.70;;;;;;;9.23;100.00;101575.53;5242885;28;20283;-71
2023/01/06 02:23:17;;;;;;;6.00;1.90;;;;;;;9.25;100.00;101570.97;5241157;28;20036;-70
2023/01/06 02:26:07;;;;;;;7.15;1.98;;;;;;;9.21;100.00;101564.97;5241933;28;20033;-71
2023/01/06 02:29:12;;;;;;;5.38;1.40;;;;;;;9.21;100.00;101559.63;5242319;28;20103;-71
2023/01/06 02:31:49;;;;;;;5.22;1.33;;;;;;;9.20;100.00;101559.72;5272196;28;20021;-71
2023/01/06 02:34:28;;;;;;;4.22;1.35;;;;;;;9.21;100.00;101550.81;5242319;28;20033;-71
2023/01/06 02:37:35;;;;;;;7.10;1.40;;;;;;;9.22;100.00;101540.06;5238715;28;20041;-70
2023/01/06 02:40:38;;;;;;;4.57;1.10;;;;;;;9.25;100.00;101538.16;5241723;28;20515;-70
2023/01/06 02:43:14;;;;;;;4.95;1.27;;;;;;;9.21;100.00;101535.69;5241466;28;20724;-70
2023/01/06 02:46:07;;;;;;;4.22;1.17;;;;;;;9.23;100.00;101531.13;5240767;28;20078;-71
2023/01/06 02:48:57;;;;;;;3.40;1.20;;;;;;;9.23;100.00;101525.78;5240098;28;20086;-71
2023/01/06 02:51:43;;;;;;;4.93;1.00;;;;;;;9.21;100.00;101521.53;5241790;28;20043;-71
2023/01/06 02:54:34;;;;;;;5.63;1.20;;;;;;;9.22;100.00;101518.78;5242424;28;20048;-71
2023/01/06 02:57:25;;;;;;;3.83;0.88;;;;;;;9.23;100.00;101515.13;5242827;28;20103;-70
2023/01/06 03:00:01;;;;;;;4.00;1.40;;;;;;;9.20;100.00;101520.66;5241410;28;20857;-71
2023/01/06 03:02:35;;;;;;;7.07;1.50;;;;;;;9.19;100.00;101518.94;5239007;28;20036;-71
2023/01/06 03:05:10;;;;;;;4.57;1.13;;;;;;;9.25;100.00;101507.06;5240707;28;20037;-71
2023/01/06 03:07:44;;;;;;;5.20;1.30;;;;;;;9.23;100.00;101511.63;5238854;28;20040;-71
2023/01/06 03:10:19;;;;;;;3.63;1.27;;;;;;;9.22;100.00;101509.91;5243186;28;20689;-71
2023/01/06 03:12:58;;;;;;;;;;;;;;;9.29;100.00;101518.41;5240449;28;20319;-70
2023/01/06 03:15:29;;;;;;;3.78;1.15;;;;;;;9.23;100.00;101500.97;5239991;28;20044;-71
2023/01/06 03:18:01;;;;;;;5.38;1.30;;;;;;;9.22;100.00;101507.25;5241894;28;20036;-70
2023/01/06 03:20:33;;;;;;;14.52;1.77;;;;;;;9.26;100.00;101499.94;5239791;28;20667;-71
2023/01/06 03:23:05;;;;;;;4.00;1.17;;;;;;;9.21;100.00;101493.06;5238822;28;20635;-71
2023/01/06 03:25:37;;;;;;;5.00;1.05;;;;;;;9.22;100.00;101497.47;5245425;28;20025;-71
2023/01/06 03:28:08;;;;;;;5.05;1.30;;;;;;;9.33;100.00;101495.94;5237217;28;20036;-71
2023/01/06 03:30:49;;;;;;;4.05;1.38;;;;;;;9.28;100.00;101503.34;5240153;28;20040;-71
2023/01/06 03:33:26;;;;;;;7.20;1.17;;;;;;;9.22;100.00;101500.13;5240715;28;20123;-71
2023/01/06 03:36:27;;;;;;;5.85;1.30;;;;;;;9.26;100.00;101505.25;5240192;28;20033;-71
2023/01/06 03:39:13;;;;;;;5.03;1.15;;;;;;;9.22;100.00;101492.16;5239734;28;20037;-71
2023/01/06 03:44:57;;;;;;;4.93;1.35;;;;;;;9.23;100.00;101479.69;5239712;28;20049;-71
2023/01/06 03:47:40;;;;;;;4.78;1.10;;;;;;;9.21;100.00;101487.75;5239959;28;21367;-71
2023/01/06 03:50:22;;;;;;;4.40;1.35;;;;;;;9.24;100.00;101502.69;5243862;28;20472;-71
2023/01/06 03:53:07;;;;;;;4.60;1.17;;;;;;;9.24;100.00;101500.00;5243041;28;20024;-71
2023/01/06 03:55:42;;;;;;;3.95;1.42;;;;;;;9.24;100.00;101497.34;5241173;28;20033;-71
2023/01/06 03:58:16;;;;;;;2.75;1.02;;;;;;;9.26;100.00;101484.78;5234788;28;20032;-71
2023/01/06 04:00:48;;;;;;;4.50;1.55;;;;;;;9.27;100.00;101493.66;5238730;28;20037;-71
2023/01/06 04:03:23;;;;;;;5.53;1.13;;;;;;;9.30;100.00;101478.38;5242370;28;20548;-71
2023/01/06 04:05:54;;;;;;;5.35;1.35;;;;;;;9.27;100.00;101475.03;5241805;28;20546;-71
2023/01/06 04:08:25;;;;;;;3.42;1.00;;;;;;;9.30;100.00;101473.03;5252886;28;20033;-71
2023/01/06 04:10:57;;;;;;;3.92;1.02;;;;;;;9.31;100.00;101465.91;5240991;28;20114;-70
2023/01/06 04:13:28;;;;;;;5.28;1.50;;;;;;;9.31;100.00;101472.06;5247615;28;20043;-71
2023/01/06 04:15:59;;;;;;;5.15;1.05;;;;;;;9.32;100.00;101464.94;5244494;28;21185;-71
2023/01/06 04:18:31;;;;;;;4.38;1.25;;;;;;;9.32;100.00;101462.25;5246791;28;20053;-70
2023/01/06 04:21:02;;;;;;;6.78;1.27;;;;;;;9.33;100.00;101453.34;5245940;28;20060;-71
2023/01/06 04:23:33;;;;;;;3.58;1.30;;;;;;;9.32;100.00;101440.97;5252731;28;20024;-71
2023/01/06 04:26:04;;;;;;;3.75;1.38;;;;;;;9.35;100.00;101440.78;5248325;28;20903;-71
2023/01/06 04:28:36;;;;;;;2.53;1.13;;;;;;;9.39;100.00;101443.16;5247218;28;20551;-71
2023/01/06 04:31:08;;;;;;;4.95;1.42;;;;;;;9.34;100.00;101445.25;5247957;28;20040;-71
2023/01/06 04:33:40;;;;;;;3.70;1.02;;;;;;;9.45;100.00;101436.59;5245972;28;20467;-71
2023/01/06 04:36:11;;;;;;;4.68;1.67;;;;;;;9.34;100.00;101425.75;5251673;28;20189;-70
2023/01/06 04:38:42;;;;;;;4.40;1.00;;;;;;;9.36;100.00;101421.22;5251027;28;20032;-71
2023/01/06 04:41:14;;;;;;;4.05;0.88;;;;;;;9.37;100.00;101421.09;5248157;28;20491;-71
2023/01/06 04:43:45;;;;;;;4.55;1.38;;;;;;;9.36;100.00;101415.88;5251876;28;20036;-71
2023/01/06 04:46:16;;;;;;;2.38;0.80;;;;;;;9.36;100.00;101403.41;5250122;28;20029;-70
2023/01/06 04:48:47;;;;;;;2.20;0.90;;;;;;;9.36;100.00;101402.56;5249516;28;20040;-71
2023/01/06 04:51:19;;;;;;;2.75;0.80;;;;;;;9.37;100.00;101409.59;5251660;28;20060;-71
2023/01/06 04:53:50;;;;;;;3.25;0.80;;;;;;;9.40;100.00;101398.75;5252558;28;20025;-71
2023/01/06 04:56:21;;;;;;;3.70;0.90;;;;;;;9.38;100.00;101412.16;5253514;28;20123;-71
2023/01/06 04:58:54;;;;;;;4.13;0.80;;;;;;;9.37;100.00;101413.09;5249118;28;20077;-71
2023/01/06 05:01:26;;;;;;;2.92;0.65;;;;;;;9.39;100.00;101413.00;5249834;28;20032;-71
2023/01/06 05:03:57;;;;;;;3.00;0.80;;;;;;;9.43;100.00;101409.19;5253261;28;20085;-71
2023/01/06 05:06:29;;;;;;;3.85;0.80;;;;;;;9.40;100.00;101402.25;5250918;28;20499;-71
2023/01/06 05:09:00;;;;;;;3.70;1.10;;;;;;;9.42;100.00;101400.34;5251331;28;20029;-71
2023/01/06 05:11:31;;;;;;;2.47;0.75;;;;;;;9.38;100.00;101385.53;5251391;28;20029;-71
2023/01/06 05:14:03;;;;;;;2.97;0.80;;;;;;;9.42;100.00;101400.34;5252383;28;20050;-71
2023/01/06 05:16:34;;;;;;;3.38;0.80;;;;;;;9.42;100.00;101380.88;5249978;28;20469;-71
2023/01/06 05:19:05;;;;;;;3.10;0.80;;;;;;;9.41;100.00;101385.34;5250708;28;20132;-71
2023/01/06 05:21:37;;;;;;;3.95;0.77;;;;;;;9.40;100.00;101396.09;5251046;28;20454;-71
2023/01/06 05:24:09;;;;;;;3.75;0.80;;;;;;;9.43;100.00;101401.22;5251093;28;20020;-71
2023/01/06 05:26:40;;;;;;;2.20;0.70;;;;;;;9.39;100.00;101397.03;5248310;28;20049;-70
2023/01/06 05:29:15;;;;;;;2.88;0.80;;;;;;;9.38;100.00;101400.66;5241097;28;20059;-71
2023/01/06 05:31:46;;;;;;;2.75;0.80;;;;;;;9.45;100.00;101390.47;5250886;28;20052;-71
2023/01/06 05:34:17;;;;;;;2.15;0.80;;;;;;;9.37;100.00;101397.13;5244740;28;20120;-71
2023/01/06 05:36:48;;;;;;;4.18;1.10;;;;;;;9.38;100.00;101398.84;5248774;28;20028;-71
2023/01/06 05:39:20;;;;;;;6.55;1.67;;;;;;;9.40;100.00;101393.44;5248012;28;20498;-71
2023/01/06 05:41:51;;;;;;;2.97;0.77;;;;;;;9.41;100.00;101401.31;5246873;28;20123;-71
2023/01/06 05:44:22;;;;;;;3.05;0.80;;;;;;;9.40;100.00;101414.72;5246616;28;20507;-71
2023/01/06 05:46:54;;;;;;;3.50;0.88;;;;;;;9.41;100.00;101406.66;5246697;28;20055;-70
2023/01/06 05:49:25;;;;;;;3.72;0.73;;;;;;;9.41;100.00;101413.75;5247181;28;20032;-71
2023/01/06 05:51:56;;;;;;;4.00;0.95;;;;;;;9.48;100.00;101411.59;5246813;28;20033;-71
2023/01/06 05:54:27;;;;;;;4.13;0.77;;;;;;;9.46;100.00;101405.50;5245952;28;20024;-71
2023/01/06 05:56:59;;;;;;;3.28;0.98;;;;;;;9.44;100.00;101410.06;5244266;28;20036;-70
2023/01/06 05:59:30;;;;;;;4.07;0.80;;;;;;;9.45;100.00;101406.44;5244188;28;20071;-70
2023/01/06 06:02:01;;;;;;;2.70;0.80;;;;;;;9.46;100.00;101400.19;5247854;28;20040;-71
2023/01/06 06:04:32;;;;;;;4.85;0.90;;;;;;;9.45;100.00;101403.78;5244009;28;20064;-72
2023/01/06 06:07:04;;;;;;;3.92;0.80;;;;;;;9.52;100.00;101408.63;5248669;28;20099;-71
2023/01/06 06:09:35;;;;;;;3.67;1.00;;;;;;;9.49;100.00;101406.16;5256270;28;20380;-71
2023/01/06 06:12:06;;;;;;;3.28;0.90;;;;;;;9.47;100.00;101405.38;5246905;28;20151;-71
2023/01/06 06:14:38;;;;;;;4.45;1.17;;;;;;;9.51;100.00;101406.94;5253330;28;20020;-71
2023/01/06 06:17:09;;;;;;;3.47;0.90;;;;;;;9.49;100.00;101407.97;5258282;28;20448;-71
2023/01/06 06:19:40;;;;;;;2.72;0.82;;;;;;;9.47;100.00;101408.03;5254629;28;20055;-70
2023/01/06 06:22:11;;;;;;;2.00;0.80;;;;;;;9.49;100.00;101410.63;5252117;28;20025;-70
2023/01/06 06:24:43;;;;;;;5.20;0.90;;;;;;;9.46;100.00;101405.50;5252473;28;20023;-70
2023/01/06 06:27:14;;;;;;;3.42;1.00;;;;;;;9.49;100.00;101403.50;5257778;28;20033;-70
2023/01/06 06:29:45;;;;;;;3.63;0.95;;;;;;;9.50;100.00;101404.34;5256221;28;20119;-71
2023/01/06 06:32:17;;;;;;;2.92;0.90;;;;;;;9.49;100.00;101408.84;5256507;28;20137;-71
2023/01/06 06:34:48;;;;;;;3.20;0.93;;;;;;;9.50;100.00;101407.03;5250751;28;20021;-71
2023/01/06 06:37:19;;;;;;;2.70;0.80;;;;;;;9.51;100.00;101403.38;5256109;28;20037;-71
2023/01/06 06:39:50;;;;;;;2.10;0.88;;;;;;;9.51;100.00;101406.94;5252764;28;20063;-71
2023/01/06 06:42:22;;;;;;;2.42;0.98;;;;;;;9.53;100.00;101402.34;5260559;28;20387;-71
2023/01/06 06:44:53;;;;;;;4.32;1.00;;;;;;;9.52;100.00;101405.13;5255533;28;20463;-71
2023/01/06 06:47:24;;;;;;;3.30;1.08;;;;;;;9.51;100.00;101414.91;5257904;28;20033;-71
2023/01/06 06:49:56;;;;;;;3.25;1.20;;;;;;;9.51;100.00;101401.59;5251352;28;20043;-71
2023/01/06 06:52:27;;;;;;;1.83;0.90;;;;;;;9.49;100.00;101406.16;5251848;28;20087;-71
2023/01/06 06:54:58;;;;;;;2.60;1.10;;;;;;;9.49;100.00;101405.28;5255137;28;20029;-71
2023/01/06 06:57:29;;;;;;;3.30;1.17;;;;;;;9.46;100.00;101409.00;5256226;28;20029;-71
2023/01/06 07:00:01;;;;;;;3.50;1.10;;;;;;;9.47;100.00;101413.38;5256169;28;20028;-71
2023/01/06 07:02:32;;;;;;;3.28;1.23;;;;;;;9.44;100.00;101405.59;5252869;28;20384;-71
2023/01/06 07:05:04;;;;;;;4.78;1.30;;;;;;;9.44;100.00;101423.38;5251413;28;20040;-71
2023/01/06 07:07:35;;;;;;;3.67;1.20;;;;;;;9.41;100.00;101422.63;5242349;28;20087;-71
2023/01/06 07:10:07;;;;;;;3.60;1.40;;;;;;;9.41;100.00;101427.97;5249908;28;20034;-71
2023/01/06 07:12:38;;;;;;;4.53;1.40;;;;;;;9.39;100.00;101434.31;5248489;28;20031;-70
2023/01/06 07:15:09;;;;;;;2.85;1.52;;;;;;;9.37;100.00;101433.56;5249258;28;20032;-71
2023/01/06 07:17:41;;;;;;;3.58;1.40;;;;;;;9.35;100.00;101435.47;5243952;28;20040;-71
2023/01/06 07:20:12;;;;;;;6.15;1.80;;;;;;;9.33;100.00;101426.72;5241331;28;20576;-71
2023/01/06 07:22:44;;;;;;;4.88;1.38;;;;;;;9.31;100.00;101423.28;5242881;28;20853;-71
2023/01/06 07:25:15;;;;;;;4.78;1.80;;;;;;;9.29;100.00;101430.53;5241134;28;20024;-71
2023/01/06 07:27:50;;;;;;;4.20;1.70;;;;;;;9.29;100.00;101431.38;5247293;28;20448;-71
2023/01/06 07:30:22;;;;;;;3.90;1.40;;;;;;;9.32;100.00;101425.88;5245642;28;20122;-71
2023/01/06 07:32:53;;;;;;;3.08;1.60;;;;;;;9.27;100.00;101425.28;5247180;28;20032;-70
2023/01/06 07:35:25;;;;;;;3.33;1.60;;;;;;;9.28;100.00;101418.13;5245608;28;20037;-71
2023/01/06 07:38:02;;;;;;;4.22;1.60;;;;;;;9.25;100.00;101429.00;5244758;28;20029;-71
2023/01/06 07:40:34;;;;;;;3.80;1.58;;;;;;;9.23;100.00;101427.28;5243058;28;20509;-71
2023/01/06 07:43:07;;;;;;;3.90;1.52;;;;;;;9.21;100.00;101434.50;5245924;28;20033;-71
2023/01/06 07:45:38;;;;;;;4.07;1.67;;;;;;;9.22;100.00;101430.03;5246038;28;20044;-71
2023/01/06 07:48:10;;;;;;;5.25;2.10;;;;;;;9.25;100.00;101442.31;5245621;28;20435;-71
2023/01/06 07:50:41;;;;;;;3.63;1.70;;;;;;;9.21;100.00;101445.16;5239857;28;20492;-70
2023/01/06 07:53:12;;;;;;;4.85;1.75;;;;;;;9.23;100.00;101447.72;5250365;28;20024;-70
2023/01/06 07:55:51;;;;;;;4.65;2.10;;;;;;;9.23;100.00;101459.22;5242825;28;20036;-71
2023/01/06 07:58:22;;;;;;;4.15;1.90;;;;;;;9.22;100.00;101459.31;5240674;28;20534;-71
2023/01/06 08:00:54;;;;;;;3.78;1.77;;;;;;;9.23;100.00;101469.88;5239559;28;20082;-71
2023/01/06 08:03:25;;;;;;;3.58;1.67;;;;;;;9.24;100.00;101476.03;5240084;28;20036;-70
2023/01/06 08:05:56;;;;;;;3.25;1.60;;;;;;;9.26;100.00;101468.81;5239825;28;20041;-70
2023/01/06 08:08:27;;;;;;;3.83;1.50;;;;;;;9.28;100.00;101461.63;5245639;28;20066;-71
2023/01/06 08:10:59;;;;;;;4.82;1.88;;;;;;;9.29;100.00;101465.97;5240457;28;20518;-71
2023/01/06 08:13:30;;;;;;;3.67;1.90;;;;;;;9.31;100.00;101466.75;5253047;28;20886;-71
2023/01/06 08:16:09;;;;;;;2.83;1.60;;;;;;;9.32;100.00;101473.78;5249759;28;20045;-70
2023/01/06 08:18:41;;;;;;;4.70;2.00;;;;;;;9.34;100.00;101476.34;5241268;28;20057;-70
2023/01/06 08:21:12;;;;;;;4.30;2.08;;;;;;;9.34;100.00;101479.00;5242329;28;20639;-71
2023/01/06 08:23:43;;;;;;;3.92;2.55;;;;;;;9.38;100.00;101484.06;5243589;28;20036;-71
2023/01/06 08:26:16;;;;;;;4.00;2.05;;;;;;;9.44;100.00;101493.50;5241127;28;20036;-71
2023/01/06 08:28:48;;;;;;;4.00;2.20;;;;;;;9.44;100.00;101496.16;5245713;28;20517;-70
2023/01/06 08:31:20;;;;;;;3.92;1.80;;;;;;;9.44;100.00;101504.16;5240641;28;20041;-71
2023/01/06 08:33:52;;;;;;;3.95;2.05;;;;;;;9.46;100.00;101496.06;5245250;28;20039;-71
2023/01/06 08:36:23;;;;;;;4.90;2.30;;;;;;;9.48;100.00;101503.00;5248408;28;20025;-71
2023/01/06 08:38:55;;;;;;;3.13;2.00;;;;;;;9.49;100.00;101507.41;5266865;28;20025;-70
2023/01/06 08:41:26;;;;;;;3.50;1.95;;;;;;;9.50;100.00;101503.75;5250698;28;20032;-71
2023/01/06 08:43:57;;;;;;;4.63;2.67;;;;;;;9.54;100.00;101521.25;5250922;28;20021;-71
2023/01/06 08:46:29;;;;;;;4.57;2.22;;;;;;;9.53;100.00;101522.22;5247690;28;20091;-70
2023/01/06 08:49:00;;;;;;;4.50;2.10;;;;;;;9.54;100.00;101534.59;5249572;28;20043;-71
2023/01/06 08:51:33;;;;;;;3.38;2.45;;;;;;;9.55;100.00;101519.44;5253071;28;20128;-71
2023/01/06 08:54:04;;;;;;;5.35;2.92;;;;;;;9.55;100.00;101536.31;5248367;28;20446;-71
2023/01/06 08:56:35;;;;;;;5.18;3.00;;;;;;;9.54;100.00;101545.25;5245343;28;20025;-71
2023/01/06 08:59:07;;;;;;;4.28;3.13;;;;;;;9.59;100.00;101534.31;5248843;28;20804;-70
2023/01/06 09:01:38;;;;;;;4.38;3.15;;;;;;;9.59;100.00;101537.84;5245002;28;20116;-70
2023/01/06 09:04:11;;;;;;;4.75;3.38;;;;;;;9.66;100.00;101540.97;5246574;28;20029;-71
2023/01/06 09:06:42;;;;;;;4.82;3.00;;;;;;;9.67;100.00;101548.03;5248179;28;20483;-71
2023/01/06 09:09:14;;;;;;;4.20;3.53;;;;;;;9.68;100.00;101551.53;5251823;28;20029;-71
2023/01/06 09:11:45;;;;;;;4.53;3.22;;;;;;;9.68;100.00;101555.03;5248331;28;20025;-71
2023/01/06 09:14:16;;;;;;;5.38;3.35;;;;;;;9.71;100.00;101548.69;5253365;28;20024;-71
2023/01/06 09:16:48;;;;;;;5.57;3.40;;;;;;;9.74;100.00;101556.47;5251783;28;20032;-71
2023/01/06 09:19:19;;;;;;;5.82;4.30;;;;;;;9.76;100.00;101552.78;5250725;28;20525;-71
2023/01/06 09:21:50;;;;;;;5.88;3.97;;;;;;;9.78;100.00;101566.03;5253337;28;20039;-71
2023/01/06 09:24:22;;;;;;;5.45;4.30;;;;;;;9.78;100.00;101571.34;5256932;28;20497;-71
2023/01/06 09:26:53;;;;;;;5.85;4.78;;;;;;;9.80;100.00;101569.44;5254772;28;20475;-71
2023/01/06 09:29:24;;;;;;;6.45;4.95;;;;;;;9.83;100.00;101582.56;5254473;28;20020;-71
2023/01/06 09:31:55;;;;;;;6.93;5.07;;;;;;;9.85;100.00;101583.31;5252629;28;20021;-70
2023/01/06 09:34:27;;;;;;;6.03;4.60;;;;;;;9.88;100.00;101582.31;5258196;28;21047;-70
2023/01/06 09:36:58;;;;;;;7.60;4.78;;;;;;;9.87;100.00;101592.09;5253207;28;20033;-71
2023/01/06 09:39:30;;;;;;;7.18;4.25;;;;;;;9.86;100.00;101594.88;5255517;28;21071;-71
2023/01/06 09:42:28;;;;;;;6.25;4.30;;;;;;;9.84;100.00;101597.63;5251412;28;20391;-71
2023/01/06 09:45:05;;;;;;;6.63;4.45;;;;;;;9.79;100.00;101599.72;5250816;28;20021;-70
2023/01/06 09:47:42;;;;;;;6.45;4.57;;;;;;;9.79;100.00;101600.56;5254093;28;20059;-71
2023/01/06 09:50:33;;;;;;;6.20;4.50;;;;;;;9.82;100.00;101600.38;5253280;28;20024;-71
2023/01/06 09:53:18;;;;;;;6.50;4.65;;;;;;;9.90;100.00;101604.38;5249257;28;20139;-71
2023/01/06 09:55:56;;;;;;;6.97;4.90;;;;;;;9.93;100.00;101606.84;5253518;28;20067;-71
2023/01/06 09:58:39;;;;;;;7.63;4.95;;;;;;;9.98;100.00;101618.94;5257124;28;20418;-71
2023/01/06 10:01:15;;;;;;;7.93;5.18;;;;;;;10.01;100.00;101615.25;5250612;28;20115;-71
2023/01/06 10:03:47;;;;;;;5.85;4.90;;;;;;;10.05;100.00;101622.09;5253300;28;20032;-71
2023/01/06 10:06:43;;;;;;;8.73;5.72;;;;;;;10.08;100.00;101610.38;5252325;28;20757;-71
2023/01/06 10:09:17;;;;;;;6.50;5.10;;;;;;;10.06;100.00;101622.97;5255559;28;20456;-71
2023/01/06 10:11:57;;;;;;;7.05;5.35;;;;;;;10.05;100.00;101613.22;5249654;28;20033;-70
2023/01/06 10:14:44;;;;;;;8.68;4.90;;;;;;;10.01;100.00;101613.44;5252777;28;20033;-70
2023/01/06 10:17:34;;;;;;;6.78;4.63;;;;;;;9.98;100.00;101610.94;5252853;28;20159;-70
2023/01/06 10:20:24;;;;;;;6.00;4.35;;;;;;;9.97;100.00;101625.25;5256421;28;20041;-70
2023/01/06 10:23:22;;;;;;;7.63;4.80;;;;;;;9.98;100.00;101620.75;5255542;28;20052;-70
2023/01/06 10:26:14;;;;;;;7.15;4.63;;;;;;;9.90;100.00;101615.91;5241200;28;20094;-70
2023/01/06 10:28:52;;;;;;;6.85;4.03;;;;;;;9.89;100.00;101611.50;5253110;28;20033;-71
2023/01/06 10:31:29;;;;;;;9.20;3.97;;;;;;;9.86;100.00;101617.03;5252914;28;20374;-70
2023/01/06 10:34:01;;;;;;;7.03;3.80;;;;;;;9.84;100.00;101613.63;5250543;28;20408;-71
2023/01/06 10:36:39;;;;;;;6.57;3.70;;;;;;;9.81;100.00;101613.78;5250649;28;20033;-71
2023/01/06 10:39:20;;;;;;;8.82;3.92;;;;;;;9.82;100.00;101615.53;5249480;28;20025;-70
2023/01/06 10:41:52;;;;;;;7.15;4.47;;;;;;;9.79;100.00;101615.69;5251333;28;20029;-70
2023/01/06 10:44:23;;;;;;;6.95;4.78;;;;;;;9.80;100.00;101620.09;5254247;28;20545;-71
2023/01/06 10:46:54;;;;;;;6.65;4.93;;;;;;;9.82;100.00;101615.53;5250274;28;20033;-70
2023/01/06 10:49:26;;;;;;;9.85;5.53;;;;;;;9.82;100.00;101618.19;5253002;28;20044;-70
2023/01/06 10:52:02;;;;;;;9.52;6.00;;;;;;;9.85;100.00;101614.47;5253324;28;20036;-71
2023/01/06 10:54:34;;;;;;;7.32;5.75;;;;;;;9.84;100.00;101610.06;5255050;28;20100;-71
2023/01/06 10:57:13;;;;;;;8.77;5.72;;;;;;;9.87;100.00;101613.41;5248437;28;20024;-71
2023/01/06 11:00:17;;;;;;;10.40;7.32;;;;;;;9.85;100.00;101611.81;5251477;28;20037;-71
2023/01/06 11:02:54;;;;;;;8.20;7.22;;;;;;;9.80;100.00;101617.44;5254470;28;20056;-70
2023/01/06 11:05:27;;;;;;;10.70;7.95;;;;;;;9.80;100.00;101628.09;5251642;28;20474;-71
2023/01/06 11:08:09;;;;;;;10.27;7.63;;;;;;;9.82;100.00;101623.53;5238504;28;20036;-70
2023/01/06 11:10:52;;;;;;;10.43;7.88;;;;;;;9.80;100.00;101620.94;5248913;28;20032;-71
2023/01/06 11:13:27;;;;;;;10.02;7.85;;;;;;;9.78;100.00;101622.84;5249670;28;20016;-70
2023/01/06 11:16:03;;;;;;;9.05;8.15;;;;;;;9.78;100.00;101616.66;5252662;28;20032;-70
2023/01/06 11:18:38;;;;;;;11.52;8.95;;;;;;;9.81;100.00;101616.47;5253261;28;20029;-70
2023/01/06 11:21:17;;;;;;;14.20;9.88;;;;;;;9.81;100.00;101614.63;5250623;28;20041;-71
2023/01/06 11:23:48;;;;;;;12.05;9.38;;;;;;;9.82;100.00;101615.53;5252638;28;20036;-71
2023/01/06 11:26:22;;;;;;;10.63;7.97;;;;;;;9.82;100.00;101615.53;5251499;28;20112;-71
2023/01/06 11:28:54;;;;;;;10.85;8.02;;;;;;;9.86;100.00;101614.38;5251431;28;20104;-70
2023/01/06 11:31:27;;;;;;;10.50;6.78;;;;;;;9.89;100.00;101618.66;5248948;28;20110;-71
2023/01/06 11:34:01;;;;;;;9.45;7.07;;;;;;;9.87;100.00;101616.06;5248001;28;20025;-70
2023/01/06 11:36:33;;;;;;;9.75;6.15;;;;;;;9.84;100.00;101624.28;5250282;28;20029;-70
2023/01/06 11:39:15;;;;;;;6.68;4.97;;;;;;;9.87;100.00;101624.06;5246424;28;20474;-71
2023/01/06 11:41:50;;;;;;;11.48;5.30;;;;;;;9.81;100.00;101611.13;5255263;28;20028;-71
2023/01/06 11:44:34;;;;;;;9.35;5.68;;;;;;;9.79;100.00;101613.03;5249560;28;20039;-71
2023/01/06 11:47:13;;;;;;;11.68;5.13;;;;;;;9.76;100.00;101599.88;5251583;28;20070;-70
2023/01/06 11:49:56;;;;;;;8.32;4.80;;;;;;;9.72;100.00;101603.69;5248484;28;20031;-71
2023/01/06 11:52:31;;;;;;;7.78;4.65;;;;;;;9.71;100.00;101602.84;5246480;28;20021;-71
2023/01/06 11:55:06;;;;;;;10.50;5.30;;;;;;;9.74;100.00;101594.66;5247423;28;20025;-71
2023/01/06 11:57:40;;;;;;;;;;;;;;;9.78;100.00;101598.84;5251708;28;20101;-70
2023/01/06 12:00:39;;;;;;;7.78;4.22;;;;;;;9.77;100.00;101597.13;5251200;28;19935;-71
2023/01/06 12:03:40;;;;;;;8.43;4.07;;;;;;;9.75;100.00;101608.84;5256006;28;20059;-71